Time;durP1;ratioP1;P1;durP2;ratioP2;P2;SDS_P1;SDS_P2;PMS_P1;PMS_P2;Temp;Humidity;BMP_temperature;BMP_pressure;BME280_temperature;BME280_humidity;BME280_pressure;Samples;Min_cycle;Max_cycle;Signal;HPM_P1;HPM_P2
2020/12/10 00:02:28;;;;;;;245.60;69.10;;;;;;;1.24;93.50;100836.75;5071770;28;20186;-70
2020/12/10 00:04:54;;;;;;;246.25;67.72;;;;;;;1.33;93.65;100839.72;5072682;28;20036;-70
2020/12/10 00:07:23;;;;;;;243.80;71.95;;;;;;;1.38;93.57;100832.34;5072283;28;20047;-70
2020/12/10 00:09:50;;;;;;;227.18;69.30;;;;;;;1.25;93.54;100830.53;5054419;28;20051;-70
2020/12/10 00:12:16;;;;;;;227.18;70.28;;;;;;;1.20;93.47;100827.38;5072727;28;20029;-70
2020/12/10 00:14:42;;;;;;;;;;;;;;;1.26;93.62;100834.88;5055447;28;20342;-70
2020/12/10 00:17:07;;;;;;;;;;;;;;;1.22;93.53;100832.53;5071749;28;20007;-71
2020/12/10 00:19:32;;;;;;;194.87;59.60;;;;;;;1.21;93.18;100828.22;5072425;28;19916;-71
2020/12/10 00:21:57;;;;;;;183.23;60.13;;;;;;;1.10;93.28;100828.94;5072414;28;20045;-71
2020/12/10 00:24:23;;;;;;;183.70;58.13;;;;;;;1.14;93.25;100834.81;5071240;28;20052;-71
2020/12/10 00:26:49;;;;;;;180.35;54.88;;;;;;;1.14;93.22;100830.38;5071072;28;20108;-71
2020/12/10 00:29:14;;;;;;;167.45;58.08;;;;;;;1.15;93.07;100826.84;5072206;28;20481;-72
2020/12/10 00:31:40;;;;;;;175.13;57.83;;;;;;;1.15;93.28;100818.94;5071139;28;20044;-72
2020/12/10 00:34:06;;;;;;;142.97;51.30;;;;;;;1.17;92.94;100824.94;5072199;28;20086;-72
2020/12/10 00:36:32;;;;;;;172.15;55.20;;;;;;;1.13;92.92;100828.72;5071750;28;20032;-73
2020/12/10 00:38:58;;;;;;;177.70;57.63;;;;;;;1.17;92.77;100826.72;5071050;28;20446;-72
2020/12/10 00:41:23;;;;;;;154.00;54.43;;;;;;;1.17;92.67;100821.44;5071161;28;20106;-72
2020/12/10 00:43:48;;;;;;;155.47;51.03;;;;;;;1.15;92.71;100823.38;5071084;28;20044;-72
2020/12/10 00:46:13;;;;;;;156.10;54.83;;;;;;;1.21;92.48;100822.94;5071545;28;20165;-72
2020/12/10 00:48:39;;;;;;;139.10;51.73;;;;;;;1.19;92.67;100823.03;5071953;28;20047;-72
2020/12/10 00:51:04;;;;;;;149.07;57.15;;;;;;;1.19;92.38;100822.19;5070957;28;20055;-73
2020/12/10 00:53:30;;;;;;;144.70;50.70;;;;;;;1.24;92.25;100814.84;5070711;28;20033;-72
2020/12/10 00:55:57;;;;;;;148.98;51.83;;;;;;;1.20;92.36;100819.47;5070501;28;20119;-73
2020/12/10 00:58:23;;;;;;;137.00;50.45;;;;;;;1.30;92.31;100826.78;5071804;28;20055;-72
2020/12/10 01:00:52;;;;;;;144.63;51.13;;;;;;;1.31;92.14;100820.56;5071692;28;20111;-72
2020/12/10 01:03:17;;;;;;;125.90;46.80;;;;;;;1.37;92.35;100820.16;5070608;28;20500;-73
2020/12/10 01:05:42;;;;;;;139.43;47.80;;;;;;;1.23;92.02;100814.00;5070544;28;20052;-73
2020/12/10 01:08:08;;;;;;;147.10;50.83;;;;;;;1.25;92.05;100822.66;5071506;28;20051;-72
2020/12/10 01:10:33;;;;;;;136.50;52.30;;;;;;;1.36;92.06;100821.94;5070622;28;20286;-73
2020/12/10 01:12:59;;;;;;;137.27;49.28;;;;;;;1.33;91.70;100816.03;5054016;28;20048;-73
2020/12/10 01:15:25;;;;;;;124.88;48.13;;;;;;;1.34;91.73;100820.38;5071554;28;20098;-72
2020/12/10 01:17:50;;;;;;;115.33;45.37;;;;;;;1.36;91.61;100813.19;5070264;28;20044;-73
2020/12/10 01:20:15;;;;;;;132.97;47.33;;;;;;;1.27;91.61;100812.03;5070944;28;20050;-73
2020/12/10 01:22:41;;;;;;;109.57;45.23;;;;;;;1.35;91.34;100808.88;5070054;28;20068;-73
2020/12/10 01:25:06;;;;;;;126.28;47.08;;;;;;;1.19;91.50;100799.38;5070509;28;20060;-72
2020/12/10 01:27:32;;;;;;;116.53;47.23;;;;;;;1.16;91.89;100802.22;5070962;28;20037;-73
2020/12/10 01:29:57;;;;;;;121.90;47.05;;;;;;;1.26;91.71;100800.69;5071370;28;20033;-73
2020/12/10 01:32:23;;;;;;;114.27;45.37;;;;;;;1.19;91.74;100798.53;5070310;28;20032;-73
2020/12/10 01:34:49;;;;;;;132.23;51.40;;;;;;;1.18;91.54;100788.97;5070362;28;20044;-73
2020/12/10 01:37:14;;;;;;;126.28;46.08;;;;;;;1.12;91.76;100792.00;5070843;28;20072;-73
2020/12/10 01:39:39;;;;;;;128.40;51.90;;;;;;;1.19;91.74;100795.91;5070278;28;20104;-73
2020/12/10 01:42:05;;;;;;;108.23;43.33;;;;;;;1.31;91.70;100796.88;5070309;28;20134;-73
2020/12/10 01:44:30;;;;;;;125.03;46.20;;;;;;;1.27;91.48;100801.53;5070321;28;20068;-73
2020/12/10 01:46:55;;;;;;;119.13;46.93;;;;;;;1.31;91.53;100794.25;5069821;28;20032;-73
2020/12/10 01:49:21;;;;;;;110.43;44.80;;;;;;;1.24;91.37;100789.41;5070212;28;20070;-72
2020/12/10 01:51:46;;;;;;;112.10;42.93;;;;;;;1.07;91.51;100786.19;5070148;28;20036;-72
2020/12/10 01:54:11;;;;;;;113.30;45.03;;;;;;;1.02;91.65;100787.34;5071142;28;20355;-73
2020/12/10 01:56:37;;;;;;;107.03;43.13;;;;;;;1.09;91.67;100785.16;5070852;28;20032;-73
2020/12/10 01:59:04;;;;;;;109.10;44.97;;;;;;;1.11;91.86;100788.53;5071124;28;20040;-72
2020/12/10 02:01:31;;;;;;;107.55;42.03;;;;;;;1.12;91.54;100781.47;5069993;28;20036;-73
2020/12/10 02:03:57;;;;;;;120.90;44.70;;;;;;;1.11;91.78;100793.78;5069986;28;20048;-73
2020/12/10 02:06:22;;;;;;;110.50;43.05;;;;;;;1.06;91.80;100780.09;5069623;28;20042;-72
2020/12/10 02:08:48;;;;;;;106.97;42.77;;;;;;;1.13;91.63;100772.66;5053282;28;20070;-72
2020/12/10 02:11:14;;;;;;;112.32;43.45;;;;;;;1.13;91.58;100775.28;5070960;28;20028;-72
2020/12/10 02:13:39;;;;;;;106.30;42.80;;;;;;;1.01;91.59;100775.16;5069930;28;20048;-72
2020/12/10 02:16:06;;;;;;;119.95;47.95;;;;;;;0.90;91.61;100763.63;5053062;28;20029;-72
2020/12/10 02:18:31;;;;;;;103.55;43.75;;;;;;;0.94;91.61;100770.41;5069889;28;20051;-73
2020/12/10 02:20:57;;;;;;;114.47;44.53;;;;;;;0.98;91.71;100764.84;5070889;28;20125;-73
2020/12/10 02:23:22;;;;;;;114.28;45.75;;;;;;;0.97;91.90;100765.75;5070844;28;20036;-72
2020/12/10 02:25:48;;;;;;;108.30;44.23;;;;;;;0.99;91.76;100768.31;5069712;28;20511;-72
2020/12/10 02:28:15;;;;;;;118.33;41.77;;;;;;;1.08;91.82;100762.44;5069742;28;20394;-72
2020/12/10 02:30:42;;;;;;;106.72;41.70;;;;;;;1.00;91.61;100765.56;5052978;28;20036;-72
2020/12/10 02:33:10;;;;;;;104.68;42.22;;;;;;;0.99;91.63;100769.13;5073227;28;20582;-72
2020/12/10 02:35:37;;;;;;;110.18;40.97;;;;;;;0.96;91.66;100763.22;5056419;28;20416;-72
2020/12/10 02:38:05;;;;;;;104.28;37.72;;;;;;;0.92;91.84;100761.75;5074303;28;20078;-72
2020/12/10 02:40:34;;;;;;;105.70;43.13;;;;;;;0.83;91.80;100764.03;5074325;28;20124;-73
2020/12/10 02:43:00;;;;;;;101.93;44.45;;;;;;;0.93;92.02;100763.44;5074250;28;20127;-72
2020/12/10 02:45:25;;;;;;;95.85;38.75;;;;;;;0.87;91.97;100759.44;5056543;28;20375;-72
2020/12/10 02:47:51;;;;;;;104.93;42.55;;;;;;;0.93;91.88;100764.25;5072961;28;20466;-71
2020/12/10 02:50:17;;;;;;;101.60;39.65;;;;;;;0.97;91.93;100754.41;5073142;28;20036;-72
2020/12/10 02:52:42;;;;;;;90.57;39.20;;;;;;;1.04;91.92;100755.69;5073148;28;20377;-73
2020/12/10 02:55:08;;;;;;;98.73;42.70;;;;;;;1.02;91.66;100752.31;5073059;28;20286;-72
2020/12/10 02:57:34;;;;;;;108.53;41.43;;;;;;;1.01;91.66;100753.28;5073909;28;20454;-73
2020/12/10 02:59:59;;;;;;;96.55;39.67;;;;;;;1.01;91.79;100753.28;5073960;28;20036;-72
2020/12/10 03:02:24;;;;;;;97.53;38.50;;;;;;;1.05;91.89;100745.09;5073982;28;20040;-72
2020/12/10 03:04:50;;;;;;;102.97;39.00;;;;;;;1.01;91.77;100748.84;5055977;28;20086;-72
2020/12/10 03:07:15;;;;;;;97.93;41.13;;;;;;;1.11;91.92;100738.56;5072545;28;20044;-72
2020/12/10 03:09:42;;;;;;;93.95;40.03;;;;;;;1.16;91.56;100733.84;5073846;28;20040;-72
2020/12/10 03:12:07;;;;;;;;;;;;;;;1.14;91.49;100734.88;5074194;28;20036;-72
2020/12/10 03:14:32;;;;;;;;;;;;;;;1.17;91.66;100732.03;5074126;28;19955;-72
2020/12/10 03:16:57;;;;;;;89.03;38.07;;;;;;;1.14;91.46;100725.19;5073438;28;19916;-67
2020/12/10 03:19:23;;;;;;;84.13;36.70;;;;;;;1.10;91.57;100723.75;5073517;28;20119;-67
2020/12/10 03:21:48;;;;;;;89.03;38.40;;;;;;;1.03;91.56;100725.94;5072639;28;20071;-67
2020/12/10 03:24:14;;;;;;;82.30;38.33;;;;;;;0.97;91.42;100728.94;5072695;28;20071;-67
2020/12/10 03:26:39;;;;;;;94.15;40.70;;;;;;;1.01;91.46;100726.97;5072244;28;20083;-67
2020/12/10 03:29:07;;;;;;;96.70;37.67;;;;;;;0.95;91.68;100716.84;5072541;28;20052;-67
2020/12/10 03:31:34;;;;;;;91.15;36.50;;;;;;;0.97;91.50;100715.81;5072504;28;20048;-67
2020/12/10 03:33:59;;;;;;;95.07;39.13;;;;;;;1.02;91.73;100715.50;5055612;28;20910;-72
2020/12/10 03:36:24;;;;;;;88.63;37.13;;;;;;;1.01;91.68;100722.56;5072175;28;20040;-72
2020/12/10 03:38:50;;;;;;;91.67;35.87;;;;;;;1.04;91.78;100708.38;5072286;28;20040;-73
2020/12/10 03:41:15;;;;;;;88.37;36.90;;;;;;;1.02;91.57;100713.72;5072401;28;20051;-72
2020/12/10 03:43:40;;;;;;;102.67;42.43;;;;;;;1.09;91.36;100708.06;5072251;28;20083;-72
2020/12/10 03:46:05;;;;;;;80.37;36.13;;;;;;;1.14;91.72;100712.06;5072840;28;20043;-72
2020/12/10 03:48:31;;;;;;;86.07;37.17;;;;;;;1.18;91.58;100702.19;5072930;28;20076;-72
2020/12/10 03:50:56;;;;;;;84.77;35.03;;;;;;;1.25;91.42;100712.19;5073036;28;20047;-73
2020/12/10 03:53:22;;;;;;;81.53;36.37;;;;;;;1.24;91.36;100700.00;5055558;28;20067;-72
2020/12/10 03:55:47;;;;;;;90.30;39.93;;;;;;;1.19;91.19;100699.44;5072751;28;20032;-72
2020/12/10 03:58:12;;;;;;;78.90;36.97;;;;;;;1.12;91.37;100700.78;5072989;28;20090;-72
2020/12/10 04:00:37;;;;;;;77.90;35.60;;;;;;;1.25;91.30;100701.66;5072048;28;20044;-72
2020/12/10 04:03:03;;;;;;;89.57;37.13;;;;;;;1.18;91.36;100700.38;5071607;28;20044;-73
2020/12/10 04:05:28;;;;;;;100.33;40.37;;;;;;;1.15;91.11;100700.59;5072789;28;20736;-72
2020/12/10 04:07:53;;;;;;;82.23;34.93;;;;;;;1.18;91.14;100695.13;5071532;28;20032;-72
2020/12/10 04:10:19;;;;;;;103.33;39.63;;;;;;;1.14;90.86;100696.28;5072702;28;20104;-72
2020/12/10 04:12:44;;;;;;;105.27;41.13;;;;;;;1.02;91.15;100700.56;5071638;28;20036;-73
2020/12/10 04:15:09;;;;;;;98.23;41.47;;;;;;;1.03;91.03;100693.50;5072494;28;20098;-73
2020/12/10 04:17:35;;;;;;;102.27;42.00;;;;;;;0.99;91.50;100703.41;5071009;28;20433;-72
2020/12/10 04:20:00;;;;;;;100.60;39.80;;;;;;;0.97;91.65;100701.84;5071752;28;20057;-72
2020/12/10 04:22:25;;;;;;;114.93;44.67;;;;;;;1.09;91.62;100695.75;5072420;28;20395;-72
2020/12/10 04:24:51;;;;;;;96.87;42.37;;;;;;;1.16;91.56;100699.66;5072469;28;20055;-72
2020/12/10 04:27:16;;;;;;;117.10;42.33;;;;;;;1.12;91.57;100700.78;5071060;28;20033;-72
2020/12/10 04:29:41;;;;;;;99.90;43.27;;;;;;;1.11;91.32;100698.28;5071382;28;20043;-72
2020/12/10 04:32:07;;;;;;;104.77;42.13;;;;;;;1.13;91.58;100702.50;5071178;28;20478;-72
2020/12/10 04:34:32;;;;;;;106.47;40.57;;;;;;;1.05;91.54;100704.78;5072275;28;20764;-72
2020/12/10 04:36:57;;;;;;;105.27;43.37;;;;;;;1.06;91.44;100703.84;5070883;28;20035;-72
2020/12/10 04:39:23;;;;;;;108.57;42.53;;;;;;;1.03;91.61;100698.78;5072214;28;20111;-72
2020/12/10 04:41:48;;;;;;;107.37;43.13;;;;;;;1.05;91.59;100705.66;5071981;28;20101;-73
2020/12/10 04:44:14;;;;;;;112.18;44.22;;;;;;;1.17;91.54;100708.38;5072018;28;20074;-72
2020/12/10 04:46:40;;;;;;;106.63;42.27;;;;;;;1.15;91.61;100699.78;5071579;28;20079;-72
2020/12/10 04:49:06;;;;;;;110.47;42.33;;;;;;;1.16;91.61;100702.28;5071863;28;20032;-72
2020/12/10 04:51:34;;;;;;;121.18;46.03;;;;;;;1.16;91.57;100710.16;5071905;28;20032;-72
2020/12/10 04:54:03;;;;;;;118.95;44.38;;;;;;;1.06;91.45;100706.47;5071797;28;20036;-72
2020/12/10 04:56:29;;;;;;;121.07;44.47;;;;;;;1.10;91.64;100709.72;5070424;28;20043;-72
2020/12/10 04:58:54;;;;;;;126.57;46.97;;;;;;;1.02;91.58;100705.00;5071757;28;20036;-72
2020/12/10 05:01:20;;;;;;;119.70;47.07;;;;;;;1.01;91.87;100716.47;5070767;28;20048;-72
2020/12/10 05:03:46;;;;;;;131.18;47.15;;;;;;;1.04;92.00;100726.78;5070684;28;20032;-72
2020/12/10 05:06:14;;;;;;;141.52;46.95;;;;;;;0.95;91.94;100714.22;5070475;28;20033;-72
2020/12/10 05:08:41;;;;;;;135.57;47.58;;;;;;;0.97;92.30;100712.34;5070669;28;20050;-73
2020/12/10 05:11:06;;;;;;;;;;;;;;;1.03;92.32;100712.78;5054087;28;20039;-72
2020/12/10 05:13:31;;;;;;;;;;;;;;;1.02;92.46;100708.44;5072121;28;19912;-73
2020/12/10 05:15:57;;;;;;;139.43;47.13;;;;;;;1.03;92.63;100709.28;5070956;28;20369;-72
2020/12/10 05:18:22;;;;;;;151.23;51.83;;;;;;;1.08;92.48;100709.84;5071482;28;20719;-72
2020/12/10 05:20:53;;;;;;;164.40;56.67;;;;;;;1.01;92.49;100705.94;5070601;28;20039;-72
2020/12/10 05:23:37;;;;;;;156.65;47.42;;;;;;;1.04;92.53;100698.69;5071433;28;20037;-72
2020/12/10 05:26:05;;;;;;;167.98;53.72;;;;;;;1.01;92.71;100704.16;5069831;28;20040;-72
2020/12/10 05:28:45;;;;;;;166.35;57.45;;;;;;;1.00;92.96;100701.63;5070560;28;20086;-73
2020/12/10 05:31:11;;;;;;;170.65;55.15;;;;;;;1.12;92.83;100706.03;5071296;28;20172;-67
2020/12/10 05:33:50;;;;;;;147.77;54.25;;;;;;;1.17;92.75;100703.13;5070453;28;20032;-67
2020/12/10 05:36:15;;;;;;;160.38;52.60;;;;;;;1.21;92.84;100704.59;5053131;28;20028;-67
2020/12/10 05:39:04;;;;;;;151.73;50.07;;;;;;;1.31;92.76;100715.34;5070352;28;20450;-67
2020/12/10 05:41:35;;;;;;;157.25;53.10;;;;;;;1.23;92.58;100708.81;5070225;28;20105;-67
2020/12/10 05:44:14;;;;;;;136.35;50.40;;;;;;;1.18;92.52;100705.66;5070224;28;20047;-67
2020/12/10 05:46:39;;;;;;;129.05;48.97;;;;;;;1.13;92.80;100707.75;5070792;28;20044;-72
2020/12/10 05:49:04;;;;;;;152.60;50.60;;;;;;;1.14;92.80;100706.78;5071024;28;20033;-72
2020/12/10 05:51:49;;;;;;;142.07;48.80;;;;;;;1.22;93.02;100708.94;5070105;28;20043;-72
2020/12/10 05:54:19;;;;;;;145.30;49.22;;;;;;;1.17;92.89;100711.88;5071141;28;20182;-72
2020/12/10 05:56:55;;;;;;;149.07;51.72;;;;;;;1.33;94.44;100713.44;5069685;28;20477;-72
2020/12/10 05:59:25;;;;;;;137.57;50.03;;;;;;;1.36;93.19;100713.22;5070229;28;20048;-72
2020/12/10 06:01:55;;;;;;;134.68;48.03;;;;;;;1.13;92.82;100707.75;5069933;28;20442;-72
2020/12/10 06:04:21;;;;;;;156.25;49.53;;;;;;;1.11;92.95;100709.63;5070893;28;20495;-72
2020/12/10 06:06:50;;;;;;;133.55;46.95;;;;;;;1.03;93.16;100715.41;5071106;28;20029;-72
2020/12/10 06:09:17;;;;;;;130.95;46.20;;;;;;;1.09;93.30;100716.78;5074123;28;20040;-72
2020/12/10 06:11:43;;;;;;;107.93;42.20;;;;;;;0.97;92.79;100718.44;5073957;28;20228;-72
2020/12/10 06:14:09;;;;;;;120.38;41.80;;;;;;;1.00;93.12;100712.97;5074921;28;20047;-72
2020/12/10 06:16:35;;;;;;;126.22;44.80;;;;;;;0.98;93.03;100711.38;5073550;28;20032;-72
2020/12/10 06:19:10;;;;;;;126.35;46.85;;;;;;;0.94;93.28;100730.97;5057430;28;20500;-73
2020/12/10 06:21:37;;;;;;;120.72;43.92;;;;;;;1.01;93.23;100727.81;5074825;28;20036;-72
2020/12/10 06:24:25;;;;;;;128.45;45.38;;;;;;;1.07;93.14;100729.19;5074639;28;20153;-72
2020/12/10 06:26:51;;;;;;;104.07;40.90;;;;;;;1.04;93.06;100721.50;5073184;28;20033;-73
2020/12/10 06:29:21;;;;;;;116.05;42.85;;;;;;;1.03;93.15;100730.31;5073616;28;20118;-73
2020/12/10 06:32:05;;;;;;;114.75;43.00;;;;;;;1.09;93.14;100724.66;5073489;28;20028;-73
2020/12/10 06:34:36;;;;;;;107.22;38.72;;;;;;;1.07;93.00;100721.28;5073490;28;20040;-73
2020/12/10 06:37:19;;;;;;;115.07;40.30;;;;;;;1.07;93.24;100728.34;5073248;28;20036;-73
2020/12/10 06:39:46;;;;;;;115.07;43.85;;;;;;;1.05;93.13;100721.41;5073557;28;20401;-73
2020/12/10 06:42:11;;;;;;;131.93;42.83;;;;;;;1.12;92.85;100721.00;5074363;28;20075;-72
2020/12/10 06:44:37;;;;;;;112.53;43.70;;;;;;;1.10;92.91;100722.88;5056821;28;20064;-73
2020/12/10 06:47:03;;;;;;;95.88;40.03;;;;;;;1.16;92.64;100723.31;5073821;28;20036;-72
2020/12/10 06:49:31;;;;;;;99.72;37.75;;;;;;;1.09;92.77;100715.94;5074274;28;20064;-73
2020/12/10 06:52:07;;;;;;;103.07;36.95;;;;;;;1.17;92.63;100718.88;5073034;28;20480;-72
2020/12/10 06:54:32;;;;;;;106.18;36.88;;;;;;;1.07;92.80;100723.09;5074009;28;20606;-67
2020/12/10 06:57:02;;;;;;;113.20;36.60;;;;;;;1.01;92.67;100719.94;5073845;28;20056;-67
2020/12/10 06:59:41;;;;;;;101.65;37.17;;;;;;;1.00;92.79;100726.13;5074025;28;20043;-67
2020/12/10 07:02:16;;;;;;;124.80;41.22;;;;;;;0.88;92.94;100723.47;5073858;28;20450;-67
2020/12/10 07:04:50;;;;;;;120.45;41.95;;;;;;;0.87;92.85;100721.75;5072921;28;20043;-67
2020/12/10 07:07:19;;;;;;;131.90;42.25;;;;;;;0.94;93.05;100725.69;5073439;28;20032;-66
2020/12/10 07:10:00;;;;;;;147.13;46.72;;;;;;;0.93;93.32;100729.25;5072851;28;20070;-66
2020/12/10 07:12:32;;;;;;;135.57;43.65;;;;;;;0.94;93.10;100734.44;5072925;28;20041;-66
2020/12/10 07:15:26;;;;;;;153.15;49.17;;;;;;;0.89;93.21;100731.25;5073757;28;20040;-66
2020/12/10 07:17:52;;;;;;;144.15;51.53;;;;;;;0.94;93.23;100738.84;5073134;28;20032;-66
2020/12/10 07:20:19;;;;;;;168.27;55.75;;;;;;;0.98;93.21;100729.78;5071858;28;20259;-67
2020/12/10 07:22:44;;;;;;;183.63;54.42;;;;;;;0.94;93.03;100738.84;5072566;28;20040;-67
2020/12/10 07:25:10;;;;;;;194.40;57.93;;;;;;;0.88;92.93;100740.06;5072337;28;20032;-66
2020/12/10 07:27:35;;;;;;;187.82;58.53;;;;;;;0.87;92.96;100730.50;5055468;28;20028;-66
2020/12/10 07:30:01;;;;;;;197.00;59.67;;;;;;;0.73;92.93;100723.53;5073469;28;20068;-66
2020/12/10 07:32:26;;;;;;;206.37;60.90;;;;;;;0.80;93.23;100726.59;5073417;28;20032;-66
2020/12/10 07:34:51;;;;;;;191.07;64.97;;;;;;;0.77;93.09;100725.03;5072455;28;20079;-66
2020/12/10 07:37:24;;;;;;;183.93;60.43;;;;;;;0.84;93.08;100730.69;5072151;28;20033;-66
2020/12/10 07:39:49;;;;;;;190.85;61.45;;;;;;;0.94;93.05;100738.84;5073169;28;20032;-66
2020/12/10 07:42:19;;;;;;;222.50;66.23;;;;;;;0.88;92.96;100731.34;5073362;28;20071;-72
2020/12/10 07:44:45;;;;;;;192.13;66.22;;;;;;;0.89;92.98;100727.75;5072269;28;20032;-72
2020/12/10 07:47:12;;;;;;;206.38;66.50;;;;;;;0.92;93.04;100738.94;5072230;28;20036;-72
2020/12/10 07:49:38;;;;;;;214.38;66.43;;;;;;;0.92;93.03;100733.69;5072195;28;20059;-72
2020/12/10 07:52:04;;;;;;;208.55;66.70;;;;;;;0.87;92.67;100734.91;5072071;28;20036;-72
2020/12/10 07:54:49;;;;;;;205.10;64.68;;;;;;;0.92;92.74;100740.72;5072760;28;20231;-72
2020/12/10 07:57:49;;;;;;;200.60;65.65;;;;;;;0.91;92.85;100744.28;5072721;28;20083;-72
2020/12/10 08:00:17;;;;;;;228.10;67.03;;;;;;;0.86;92.71;100741.13;5071740;28;20475;-72
2020/12/10 08:02:45;;;;;;;204.60;63.35;;;;;;;0.97;92.74;100744.72;5072567;28;20803;-72
2020/12/10 08:05:18;;;;;;;185.88;64.38;;;;;;;0.92;92.56;100741.56;5071680;28;20048;-72
2020/12/10 08:07:51;;;;;;;197.20;61.80;;;;;;;0.98;92.33;100735.06;5071492;28;20068;-71
2020/12/10 08:10:20;;;;;;;185.73;64.03;;;;;;;1.02;92.35;100737.38;5072591;28;20450;-72
2020/12/10 08:13:06;;;;;;;165.45;58.65;;;;;;;1.03;92.21;100735.59;5072674;28;20032;-71
2020/12/10 08:15:31;;;;;;;176.50;57.95;;;;;;;0.96;92.04;100739.56;5071525;28;20450;-71
2020/12/10 08:18:03;;;;;;;186.53;58.27;;;;;;;1.05;92.16;100741.59;5072492;28;20071;-71
2020/12/10 08:20:39;;;;;;;161.15;56.45;;;;;;;1.08;91.71;100740.53;5071577;28;20190;-71
2020/12/10 08:23:05;;;;;;;184.18;63.90;;;;;;;0.82;91.64;100735.22;5072342;28;20119;-71
2020/12/10 08:25:30;;;;;;;183.97;62.63;;;;;;;0.91;91.79;100731.97;5072008;28;20186;-71
2020/12/10 08:27:56;;;;;;;155.17;55.77;;;;;;;0.90;91.45;100726.84;5072036;28;20127;-71
2020/12/10 08:30:21;;;;;;;164.40;52.30;;;;;;;0.92;91.33;100738.94;5070792;28;20119;-71
2020/12/10 08:32:54;;;;;;;158.00;53.77;;;;;;;0.90;91.41;100737.34;5071362;28;20044;-71
2020/12/10 08:35:20;;;;;;;160.93;55.47;;;;;;;0.86;91.42;100730.59;5072095;28;20041;-71
2020/12/10 08:37:46;;;;;;;152.75;57.70;;;;;;;0.84;91.13;100736.81;5071861;28;20047;-71
2020/12/10 08:40:12;;;;;;;148.63;53.90;;;;;;;0.86;91.30;100725.34;5054313;28;20037;-71
2020/12/10 08:42:37;;;;;;;140.73;53.30;;;;;;;0.96;91.24;100731.69;5071132;28;20047;-71
2020/12/10 08:45:04;;;;;;;147.57;52.05;;;;;;;1.04;90.93;100734.66;5070871;28;20442;-71
2020/12/10 08:47:31;;;;;;;146.52;54.85;;;;;;;0.88;90.64;100734.81;5071337;28;20139;-71
2020/12/10 08:50:04;;;;;;;136.57;53.28;;;;;;;0.87;90.71;100742.78;5071858;28;20029;-71
2020/12/10 08:52:30;;;;;;;133.70;51.40;;;;;;;0.79;90.99;100736.25;5071655;28;20478;-71
2020/12/10 08:54:55;;;;;;;136.47;55.97;;;;;;;0.91;90.91;100739.88;5070862;28;20040;-71
2020/12/10 08:57:20;;;;;;;148.77;52.50;;;;;;;0.95;90.84;100743.16;5070414;28;20047;-71
2020/12/10 08:59:48;;;;;;;141.57;55.87;;;;;;;0.96;90.56;100743.06;5071672;28;20032;-71
2020/12/10 09:02:13;;;;;;;153.95;54.80;;;;;;;0.91;90.49;100744.28;5070428;28;20047;-71
2020/12/10 09:04:38;;;;;;;142.60;52.50;;;;;;;1.00;90.70;100736.63;5071496;28;20036;-71
2020/12/10 09:07:03;;;;;;;141.83;52.73;;;;;;;0.95;90.57;100738.72;5070197;28;20048;-71
2020/12/10 09:09:29;;;;;;;147.98;54.58;;;;;;;1.01;90.54;100737.50;5070518;28;20060;-70
2020/12/10 09:11:55;;;;;;;146.97;53.53;;;;;;;0.98;90.68;100740.31;5071540;28;20044;-70
2020/12/10 09:14:20;;;;;;;145.20;54.20;;;;;;;1.02;90.72;100741.81;5053913;28;20032;-70
2020/12/10 09:16:45;;;;;;;140.17;50.50;;;;;;;1.25;91.53;100732.38;5070140;28;20054;-70
2020/12/10 09:19:10;;;;;;;142.30;51.43;;;;;;;1.09;90.56;100726.47;5071463;28;20036;-70
2020/12/10 09:21:36;;;;;;;162.27;54.67;;;;;;;1.12;90.53;100728.88;5070367;28;20063;-70
2020/12/10 09:24:02;;;;;;;153.07;52.05;;;;;;;0.99;90.68;100742.00;5070388;28;20075;-70
2020/12/10 09:26:27;;;;;;;138.20;51.17;;;;;;;1.02;90.78;100734.75;5070852;28;20084;-70
2020/12/10 09:28:53;;;;;;;160.80;56.63;;;;;;;1.07;90.61;100728.34;5070409;28;20451;-70
2020/12/10 09:31:18;;;;;;;175.40;57.27;;;;;;;0.95;90.74;100732.63;5071124;28;20040;-70
2020/12/10 09:33:43;;;;;;;169.80;60.73;;;;;;;0.96;91.17;100723.78;5071299;28;20040;-71
2020/12/10 09:36:09;;;;;;;163.57;62.20;;;;;;;0.92;91.00;100719.69;5053201;28;20036;-70
2020/12/10 09:38:38;;;;;;;174.63;55.80;;;;;;;1.00;91.10;100720.03;5071105;28;20021;-70
2020/12/10 09:41:04;;;;;;;163.45;57.53;;;;;;;1.00;91.16;100720.03;5069835;28;20127;-70
2020/12/10 09:43:29;;;;;;;160.10;57.47;;;;;;;1.01;91.18;100719.09;5069752;28;20127;-70
2020/12/10 09:46:00;;;;;;;167.97;59.07;;;;;;;1.03;91.19;100714.56;5070810;28;20117;-70
2020/12/10 09:48:25;;;;;;;166.50;58.22;;;;;;;1.12;91.12;100713.09;5070019;28;20107;-70
2020/12/10 09:50:51;;;;;;;166.77;56.43;;;;;;;1.02;90.88;100710.25;5071028;28;20553;-70
2020/12/10 09:53:21;;;;;;;160.70;59.90;;;;;;;1.04;91.00;100714.47;5053241;28;20040;-70
2020/12/10 09:58:21;;;;;;;177.20;61.95;;;;;;;0.94;90.83;100721.28;5071044;28;20044;-70
2020/12/10 10:00:50;;;;;;;172.13;63.47;;;;;;;0.95;91.17;100716.84;5070939;28;20119;-70
2020/12/10 10:03:19;;;;;;;183.52;60.03;;;;;;;0.99;91.20;100711.28;5070763;28;20090;-70
2020/12/10 10:05:45;;;;;;;170.43;61.30;;;;;;;0.91;90.78;100702.22;5070454;28;20068;-70
2020/12/10 10:08:10;;;;;;;172.20;60.00;;;;;;;0.89;90.88;100712.00;5069872;28;20124;-70
2020/12/10 10:10:35;;;;;;;171.57;62.03;;;;;;;0.84;91.31;100707.91;5070862;28;20029;-70
2020/12/10 10:13:01;;;;;;;186.97;65.43;;;;;;;0.89;91.28;100704.97;5069892;28;20897;-70
2020/12/10 10:15:26;;;;;;;165.43;61.00;;;;;;;1.03;91.36;100696.16;5070730;28;20032;-70
2020/12/10 10:17:51;;;;;;;181.37;59.93;;;;;;;0.94;91.11;100696.78;5069533;28;20294;-70
2020/12/10 10:20:17;;;;;;;181.10;64.10;;;;;;;0.95;91.14;100687.94;5070721;28;20040;-70
2020/12/10 10:22:43;;;;;;;170.88;62.38;;;;;;;1.09;90.97;100684.41;5070743;28;20040;-70
2020/12/10 10:25:08;;;;;;;176.10;60.42;;;;;;;1.02;90.77;100691.84;5070714;28;20041;-70
2020/12/10 10:27:34;;;;;;;182.27;60.77;;;;;;;0.99;90.91;100694.69;5070320;28;20060;-66
2020/12/10 10:29:59;;;;;;;182.93;61.40;;;;;;;1.07;91.01;100687.13;5053018;28;20074;-66
2020/12/10 10:32:24;;;;;;;165.57;59.43;;;;;;;1.14;90.76;100693.63;5069657;28;20362;-66
2020/12/10 10:34:50;;;;;;;169.50;58.23;;;;;;;1.14;90.63;100693.63;5069393;28;20043;-66
2020/12/10 10:37:15;;;;;;;170.95;55.35;;;;;;;1.17;90.55;100687.34;5070331;28;20032;-66
2020/12/10 10:39:41;;;;;;;153.10;53.90;;;;;;;1.19;90.43;100683.66;5069626;28;20047;-66
2020/12/10 10:42:06;;;;;;;151.23;54.57;;;;;;;1.22;90.70;100688.72;5070681;28;20040;-66
2020/12/10 10:44:31;;;;;;;157.20;54.80;;;;;;;1.31;90.49;100683.78;5052828;28;20029;-66
2020/12/10 10:46:57;;;;;;;160.37;52.60;;;;;;;1.32;90.38;100674.94;5070123;28;20048;-66
2020/12/10 10:49:22;;;;;;;147.70;51.80;;;;;;;1.17;90.21;100674.19;5052649;28;20040;-66
2020/12/10 10:51:48;;;;;;;150.70;54.45;;;;;;;1.31;90.18;100679.38;5069647;28;20123;-66
2020/12/10 10:54:14;;;;;;;137.48;50.78;;;;;;;1.35;89.98;100685.25;5072946;28;20064;-66
2020/12/10 10:56:39;;;;;;;149.27;53.45;;;;;;;1.46;89.87;100667.78;5072651;28;20211;-66
2020/12/10 10:59:05;;;;;;;150.73;49.77;;;;;;;1.51;89.70;100664.84;5073931;28;20090;-66
2020/12/10 11:01:30;;;;;;;139.23;49.30;;;;;;;1.40;89.52;100656.84;5072857;28;20040;-66
2020/12/10 11:03:56;;;;;;;153.83;51.43;;;;;;;1.51;89.57;100659.56;5055858;28;20032;-66
2020/12/10 11:06:21;;;;;;;149.98;48.45;;;;;;;1.51;89.51;100659.56;5073560;28;20064;-66
2020/12/10 11:08:47;;;;;;;152.33;51.30;;;;;;;1.38;89.47;100653.47;5073680;28;20079;-66
2020/12/10 11:11:17;;;;;;;150.77;50.77;;;;;;;1.47;89.40;100650.19;5072764;28;20032;-67
2020/12/10 11:13:42;;;;;;;139.88;48.30;;;;;;;1.29;89.68;100657.59;5056040;28;20486;-66
2020/12/10 11:16:08;;;;;;;144.07;50.57;;;;;;;1.37;89.73;100657.06;5072353;28;20044;-66